sensor_id;sensor_type;location;lat;lon;timestamp;temperature;humidity
37868;DHT22;24011;48.880;9.190;2023-01-15T00:02:18;23.60;31.10
37868;DHT22;24011;48.880;9.190;2023-01-15T00:05:26;23.60;31.20
37868;DHT22;24011;48.880;9.190;2023-01-15T00:08:43;23.60;31.20
37868;DHT22;24011;48.880;9.190;2023-01-15T00:11:55;23.60;31.20
37868;DHT22;24011;48.880;9.190;2023-01-15T00:15:07;23.60;31.20
37868;DHT22;24011;48.880;9.190;2023-01-15T00:18:19;23.60;31.20
37868;DHT22;24011;48.880;9.190;2023-01-15T00:21:32;23.60;31.20
37868;DHT22;24011;48.880;9.190;2023-01-15T00:24:49;23.60;31.20
37868;DHT22;24011;48.880;9.190;2023-01-15T00:28:07;23.60;31.20
37868;DHT22;24011;48.880;9.190;2023-01-15T00:31:25;23.60;31.20
37868;DHT22;24011;48.880;9.190;2023-01-15T00:35:08;23.60;31.20
37868;DHT22;24011;48.880;9.190;2023-01-15T00:38:43;23.60;31.20
37868;DHT22;24011;48.880;9.190;2023-01-15T00:42:19;23.60;31.20
37868;DHT22;24011;48.880;9.190;2023-01-15T00:45:49;23.70;31.20
37868;DHT22;24011;48.880;9.190;2023-01-15T00:49:31;23.60;31.20
37868;DHT22;24011;48.880;9.190;2023-01-15T00:52:55;23.60;31.20
37868;DHT22;24011;48.880;9.190;2023-01-15T00:56:43;23.60;31.20
37868;DHT22;24011;48.880;9.190;2023-01-15T02:36:56;23.60;31.40
37868;DHT22;24011;48.880;9.190;2023-01-15T02:40:28;23.60;31.40
37868;DHT22;24011;48.880;9.190;2023-01-15T02:43:54;23.60;31.40
37868;DHT22;24011;48.880;9.190;2023-01-15T02:47:23;23.60;31.40
37868;DHT22;24011;48.880;9.190;2023-01-15T02:50:53;23.60;31.40
37868;DHT22;24011;48.880;9.190;2023-01-15T02:54:45;23.60;31.30
37868;DHT22;24011;48.880;9.190;2023-01-15T02:58:50;23.60;31.40
37868;DHT22;24011;48.880;9.190;2023-01-15T03:10:57;23.60;31.40
37868;DHT22;24011;48.880;9.190;2023-01-15T03:14:56;23.60;31.30
37868;DHT22;24011;48.880;9.190;2023-01-15T03:26:42;23.60;31.30
37868;DHT22;24011;48.880;9.190;2023-01-15T03:30:11;23.60;31.40
37868;DHT22;24011;48.880;9.190;2023-01-15T03:33:50;23.70;31.40
37868;DHT22;24011;48.880;9.190;2023-01-15T03:36:56;23.60;31.30
37868;DHT22;24011;48.880;9.190;2023-01-15T03:40:26;23.60;31.30
37868;DHT22;24011;48.880;9.190;2023-01-15T03:44:04;23.60;31.40
37868;DHT22;24011;48.880;9.190;2023-01-15T03:47:44;23.60;31.40
37868;DHT22;24011;48.880;9.190;2023-01-15T03:51:10;23.60;31.40
37868;DHT22;24011;48.880;9.190;2023-01-15T03:54:32;23.70;31.50
37868;DHT22;24011;48.880;9.190;2023-01-15T03:57:59;23.60;31.40
37868;DHT22;24011;48.880;9.190;2023-01-15T04:01:50;23.70;31.40
37868;DHT22;24011;48.880;9.190;2023-01-15T04:05:16;23.70;31.40
37868;DHT22;24011;48.880;9.190;2023-01-15T04:08:52;23.60;31.40
37868;DHT22;24011;48.880;9.190;2023-01-15T04:12:16;23.60;31.40
37868;DHT22;24011;48.880;9.190;2023-01-15T04:15:40;23.60;31.40
37868;DHT22;24011;48.880;9.190;2023-01-15T04:19:02;23.60;31.40
37868;DHT22;24011;48.880;9.190;2023-01-15T04:22:32;23.70;31.50
37868;DHT22;24011;48.880;9.190;2023-01-15T04:25:56;23.60;31.50
37868;DHT22;24011;48.880;9.190;2023-01-15T04:29:29;23.70;31.50
37868;DHT22;24011;48.880;9.190;2023-01-15T04:32:59;23.70;31.50
37868;DHT22;24011;48.880;9.190;2023-01-15T04:36:51;23.60;31.40
37868;DHT22;24011;48.880;9.190;2023-01-15T04:40:17;23.60;31.50
37868;DHT22;24011;48.880;9.190;2023-01-15T04:43:47;23.70;31.50
37868;DHT22;24011;48.880;9.190;2023-01-15T04:47:17;23.70;31.50
37868;DHT22;24011;48.880;9.190;2023-01-15T04:50:51;23.70;31.50
37868;DHT22;24011;48.880;9.190;2023-01-15T04:54:17;23.70;31.50
37868;DHT22;24011;48.880;9.190;2023-01-15T04:57:59;23.70;31.50
37868;DHT22;24011;48.880;9.190;2023-01-15T05:01:23;23.70;31.50
37868;DHT22;24011;48.880;9.190;2023-01-15T05:05:17;23.70;31.50
37868;DHT22;24011;48.880;9.190;2023-01-15T05:08:39;23.70;31.50
37868;DHT22;24011;48.880;9.190;2023-01-15T05:12:17;23.70;31.50
37868;DHT22;24011;48.880;9.190;2023-01-15T05:15:39;23.70;31.50
37868;DHT22;24011;48.880;9.190;2023-01-15T05:19:03;23.70;31.50
37868;DHT22;24011;48.880;9.190;2023-01-15T05:22:29;23.70;31.50
37868;DHT22;24011;48.880;9.190;2023-01-15T05:25:59;23.70;31.50
37868;DHT22;24011;48.880;9.190;2023-01-15T05:29:29;23.70;31.50
37868;DHT22;24011;48.880;9.190;2023-01-15T05:33:21;23.70;31.40
37868;DHT22;24011;48.880;9.190;2023-01-15T05:36:45;23.70;31.40
37868;DHT22;24011;48.880;9.190;2023-01-15T05:40:11;23.70;31.40
37868;DHT22;24011;48.880;9.190;2023-01-15T05:43:35;23.80;31.50
37868;DHT22;24011;48.880;9.190;2023-01-15T05:47:09;23.70;31.40
37868;DHT22;24011;48.880;9.190;2023-01-15T05:50:35;23.70;31.40
37868;DHT22;24011;48.880;9.190;2023-01-15T05:54:06;23.70;31.40
37868;DHT22;24011;48.880;9.190;2023-01-15T05:57:29;23.70;31.40
37868;DHT22;24011;48.880;9.190;2023-01-15T06:01:05;23.70;31.40
37868;DHT22;24011;48.880;9.190;2023-01-15T06:04:17;23.80;31.50
37868;DHT22;24011;48.880;9.190;2023-01-15T06:07:25;23.70;31.40
37868;DHT22;24011;48.880;9.190;2023-01-15T06:10:33;23.70;31.40
37868;DHT22;24011;48.880;9.190;2023-01-15T06:13:37;23.70;31.40
37868;DHT22;24011;48.880;9.190;2023-01-15T06:16:41;23.70;31.40
37868;DHT22;24011;48.880;9.190;2023-01-15T06:19:47;23.70;31.40
37868;DHT22;24011;48.880;9.190;2023-01-15T06:22:52;23.70;31.40
37868;DHT22;24011;48.880;9.190;2023-01-15T06:25:54;23.70;31.40
37868;DHT22;24011;48.880;9.190;2023-01-15T06:28:58;23.70;31.40
37868;DHT22;24011;48.880;9.190;2023-01-15T06:32:02;23.80;31.40
37868;DHT22;24011;48.880;9.190;2023-01-15T06:35:04;23.80;31.50
37868;DHT22;24011;48.880;9.190;2023-01-15T06:38:08;23.70;31.40
37868;DHT22;24011;48.880;9.190;2023-01-15T06:41:38;23.80;31.40
37868;DHT22;24011;48.880;9.190;2023-01-15T06:45:02;23.80;31.40
37868;DHT22;24011;48.880;9.190;2023-01-15T06:48:30;23.80;31.40
37868;DHT22;24011;48.880;9.190;2023-01-15T06:52:08;23.80;31.40
37868;DHT22;24011;48.880;9.190;2023-01-15T06:55:42;23.80;31.40
37868;DHT22;24011;48.880;9.190;2023-01-15T06:59:14;23.80;31.40
37868;DHT22;24011;48.880;9.190;2023-01-15T07:02:48;23.80;31.40
37868;DHT22;24011;48.880;9.190;2023-01-15T07:06:12;23.80;31.50
37868;DHT22;24011;48.880;9.190;2023-01-15T07:09:38;23.70;31.40
37868;DHT22;24011;48.880;9.190;2023-01-15T07:13:02;23.70;31.40
37868;DHT22;24011;48.880;9.190;2023-01-15T07:16:36;23.70;31.40
37868;DHT22;24011;48.880;9.190;2023-01-15T07:20:08;23.70;31.40
37868;DHT22;24011;48.880;9.190;2023-01-15T07:24:09;23.70;31.40
37868;DHT22;24011;48.880;9.190;2023-01-15T07:39:50;23.80;31.50
37868;DHT22;24011;48.880;9.190;2023-01-15T07:43:41;23.80;31.50
37868;DHT22;24011;48.880;9.190;2023-01-15T07:47:08;23.70;31.40
37868;DHT22;24011;48.880;9.190;2023-01-15T07:50:41;23.80;31.50
37868;DHT22;24011;48.880;9.190;2023-01-15T07:54:08;23.70;31.40
37868;DHT22;24011;48.880;9.190;2023-01-15T07:57:33;23.80;31.50
37868;DHT22;24011;48.880;9.190;2023-01-15T08:00:59;23.70;31.50
37868;DHT22;24011;48.880;9.190;2023-01-15T08:04:27;23.70;31.50
37868;DHT22;24011;48.880;9.190;2023-01-15T08:07:51;23.70;31.50
37868;DHT22;24011;48.880;9.190;2023-01-15T08:11:17;23.70;31.50
37868;DHT22;24011;48.880;9.190;2023-01-15T08:14:47;23.70;31.50
37868;DHT22;24011;48.880;9.190;2023-01-15T08:18:35;23.70;31.50
37868;DHT22;24011;48.880;9.190;2023-01-15T08:21:57;23.70;31.50
37868;DHT22;24011;48.880;9.190;2023-01-15T08:25:27;23.70;31.50
37868;DHT22;24011;48.880;9.190;2023-01-15T08:28:51;23.70;31.50
37868;DHT22;24011;48.880;9.190;2023-01-15T08:32:27;23.70;31.50
37868;DHT22;24011;48.880;9.190;2023-01-15T08:35:51;23.70;31.50
37868;DHT22;24011;48.880;9.190;2023-01-15T08:39:17;23.70;31.50
37868;DHT22;24011;48.880;9.190;2023-01-15T08:42:53;23.70;31.50
37868;DHT22;24011;48.880;9.190;2023-01-15T08:46:27;23.70;31.50
37868;DHT22;24011;48.880;9.190;2023-01-15T08:50:17;23.70;31.50
37868;DHT22;24011;48.880;9.190;2023-01-15T08:53:51;23.70;31.50
37868;DHT22;24011;48.880;9.190;2023-01-15T08:57:17;23.80;31.60
37868;DHT22;24011;48.880;9.190;2023-01-15T09:00:47;23.70;31.50
37868;DHT22;24011;48.880;9.190;2023-01-15T09:03:53;23.70;31.50
37868;DHT22;24011;48.880;9.190;2023-01-15T09:07:06;23.70;31.50
37868;DHT22;24011;48.880;9.190;2023-01-15T09:10:11;23.70;31.50
37868;DHT22;24011;48.880;9.190;2023-01-15T09:13:29;23.70;31.50
37868;DHT22;24011;48.880;9.190;2023-01-15T09:16:35;23.80;31.60
37868;DHT22;24011;48.880;9.190;2023-01-15T09:19:41;23.70;31.50
37868;DHT22;24011;48.880;9.190;2023-01-15T09:22:53;23.70;31.50
37868;DHT22;24011;48.880;9.190;2023-01-15T09:26:00;23.80;31.60
37868;DHT22;24011;48.880;9.190;2023-01-15T09:29:00;23.70;31.50
37868;DHT22;24011;48.880;9.190;2023-01-15T09:32:11;23.80;31.60
37868;DHT22;24011;48.880;9.190;2023-01-15T09:35:15;23.70;31.50
37868;DHT22;24011;48.880;9.190;2023-01-15T09:38:29;23.70;31.50
37868;DHT22;24011;48.880;9.190;2023-01-15T09:41:46;23.70;31.50
37868;DHT22;24011;48.880;9.190;2023-01-15T09:45:22;23.80;31.60
37868;DHT22;24011;48.880;9.190;2023-01-15T09:48:47;23.70;31.50
37868;DHT22;24011;48.880;9.190;2023-01-15T09:52:01;23.70;31.50
37868;DHT22;24011;48.880;9.190;2023-01-15T09:55:12;23.70;31.40
37868;DHT22;24011;48.880;9.190;2023-01-15T09:58:18;23.70;31.50
37868;DHT22;24011;48.880;9.190;2023-01-15T10:01:17;23.70;31.50
37868;DHT22;24011;48.880;9.190;2023-01-15T10:04:47;23.70;31.50
37868;DHT22;24011;48.880;9.190;2023-01-15T10:08:18;23.70;31.40
37868;DHT22;24011;48.880;9.190;2023-01-15T10:12:24;23.70;31.40
37868;DHT22;24011;48.880;9.190;2023-01-15T10:15:53;23.70;31.40
37868;DHT22;24011;48.880;9.190;2023-01-15T10:19:59;23.70;31.40
37868;DHT22;24011;48.880;9.190;2023-01-15T10:23:44;23.70;31.40
37868;DHT22;24011;48.880;9.190;2023-01-15T10:28:08;23.70;31.40
37868;DHT22;24011;48.880;9.190;2023-01-15T10:31:30;23.70;31.40
37868;DHT22;24011;48.880;9.190;2023-01-15T10:35:29;23.70;31.40
37868;DHT22;24011;48.880;9.190;2023-01-15T10:39:03;23.70;31.40
37868;DHT22;24011;48.880;9.190;2023-01-15T10:46:42;23.70;31.50
37868;DHT22;24011;48.880;9.190;2023-01-15T10:50:42;23.70;31.50
37868;DHT22;24011;48.880;9.190;2023-01-15T10:54:12;23.70;31.50
37868;DHT22;24011;48.880;9.190;2023-01-15T10:58:12;23.70;31.50
37868;DHT22;24011;48.880;9.190;2023-01-15T11:01:48;23.70;31.50
37868;DHT22;24011;48.880;9.190;2023-01-15T11:05:25;23.60;31.50
37868;DHT22;24011;48.880;9.190;2023-01-15T11:08:37;23.60;31.50
37868;DHT22;24011;48.880;9.190;2023-01-15T11:12:02;23.60;31.50
37868;DHT22;24011;48.880;9.190;2023-01-15T11:15:25;23.70;31.50
37868;DHT22;24011;48.880;9.190;2023-01-15T11:18:54;23.70;31.60
37868;DHT22;24011;48.880;9.190;2023-01-15T11:22:13;23.70;31.60
37868;DHT22;24011;48.880;9.190;2023-01-15T11:25:37;23.60;31.50
37868;DHT22;24011;48.880;9.190;2023-01-15T11:28:49;23.60;31.60
37868;DHT22;24011;48.880;9.190;2023-01-15T11:32:01;23.60;31.50
37868;DHT22;24011;48.880;9.190;2023-01-15T11:35:19;23.60;31.60
37868;DHT22;24011;48.880;9.190;2023-01-15T11:38:41;23.60;31.60
37868;DHT22;24011;48.880;9.190;2023-01-15T11:41:56;23.60;31.60
37868;DHT22;24011;48.880;9.190;2023-01-15T11:45:30;23.60;31.60
37868;DHT22;24011;48.880;9.190;2023-01-15T11:48:55;23.60;31.60
37868;DHT22;24011;48.880;9.190;2023-01-15T11:52:36;23.60;31.60
37868;DHT22;24011;48.880;9.190;2023-01-15T11:56:12;23.60;31.60
37868;DHT22;24011;48.880;9.190;2023-01-15T12:00:00;23.60;31.60
37868;DHT22;24011;48.880;9.190;2023-01-15T12:03:30;23.50;31.50
37868;DHT22;24011;48.880;9.190;2023-01-15T12:07:01;23.50;31.60
37868;DHT22;24011;48.880;9.190;2023-01-15T12:10:36;23.60;31.60
37868;DHT22;24011;48.880;9.190;2023-01-15T12:14:31;23.60;31.60
37868;DHT22;24011;48.880;9.190;2023-01-15T12:18:01;23.50;31.50
37868;DHT22;24011;48.880;9.190;2023-01-15T12:21:32;23.50;31.50
37868;DHT22;24011;48.880;9.190;2023-01-15T12:25:19;23.50;31.50
37868;DHT22;24011;48.880;9.190;2023-01-15T12:29:01;23.50;31.60
37868;DHT22;24011;48.880;9.190;2023-01-15T12:32:15;23.50;31.50
37868;DHT22;24011;48.880;9.190;2023-01-15T12:35:32;23.50;31.50
37868;DHT22;24011;48.880;9.190;2023-01-15T12:38:49;23.50;31.50
37868;DHT22;24011;48.880;9.190;2023-01-15T12:42:08;23.50;31.60
37868;DHT22;24011;48.880;9.190;2023-01-15T12:45:32;23.50;31.60
37868;DHT22;24011;48.880;9.190;2023-01-15T12:48:50;23.50;31.60
37868;DHT22;24011;48.880;9.190;2023-01-15T12:52:01;23.50;31.60
37868;DHT22;24011;48.880;9.190;2023-01-15T12:55:20;23.50;31.60
37868;DHT22;24011;48.880;9.190;2023-01-15T12:58:38;23.50;31.60
37868;DHT22;24011;48.880;9.190;2023-01-15T13:02:20;23.50;31.60
37868;DHT22;24011;48.880;9.190;2023-01-15T13:05:44;23.50;31.60
37868;DHT22;24011;48.880;9.190;2023-01-15T13:09:38;23.50;31.60
37868;DHT22;24011;48.880;9.190;2023-01-15T13:13:32;23.50;31.60
37868;DHT22;24011;48.880;9.190;2023-01-15T13:20:41;23.50;31.60
37868;DHT22;24011;48.880;9.190;2023-01-15T13:24:22;23.50;31.60
37868;DHT22;24011;48.880;9.190;2023-01-15T13:28:15;23.50;31.60
37868;DHT22;24011;48.880;9.190;2023-01-15T13:32:09;23.50;31.60
37868;DHT22;24011;48.880;9.190;2023-01-15T13:40:15;23.50;31.60
37868;DHT22;24011;48.880;9.190;2023-01-15T13:44:10;23.50;31.70
37868;DHT22;24011;48.880;9.190;2023-01-15T13:47:38;23.50;31.60
37868;DHT22;24011;48.880;9.190;2023-01-15T13:51:38;23.50;31.60
37868;DHT22;24011;48.880;9.190;2023-01-15T13:55:20;23.50;31.60
37868;DHT22;24011;48.880;9.190;2023-01-15T13:59:27;23.50;31.60
37868;DHT22;24011;48.880;9.190;2023-01-15T14:03:27;23.50;31.60
37868;DHT22;24011;48.880;9.190;2023-01-15T14:07:30;23.50;31.70
37868;DHT22;24011;48.880;9.190;2023-01-15T14:11:26;23.50;31.60
37868;DHT22;24011;48.880;9.190;2023-01-15T14:15:38;23.50;31.60
37868;DHT22;24011;48.880;9.190;2023-01-15T14:19:27;23.50;31.60
37868;DHT22;24011;48.880;9.190;2023-01-15T14:23:20;23.50;31.60
37868;DHT22;24011;48.880;9.190;2023-01-15T14:27:03;23.50;31.70
37868;DHT22;24011;48.880;9.190;2023-01-15T14:31:15;23.50;31.70
37868;DHT22;24011;48.880;9.190;2023-01-15T14:34:39;23.50;31.70
37868;DHT22;24011;48.880;9.190;2023-01-15T14:38:21;23.50;31.70
37868;DHT22;24011;48.880;9.190;2023-01-15T14:41:52;23.50;31.70
37868;DHT22;24011;48.880;9.190;2023-01-15T14:45:33;23.50;31.70
37868;DHT22;24011;48.880;9.190;2023-01-15T14:49:02;23.40;31.70
37868;DHT22;24011;48.880;9.190;2023-01-15T14:53:03;23.50;31.70
37868;DHT22;24011;48.880;9.190;2023-01-15T14:56:39;23.50;31.60
37868;DHT22;24011;48.880;9.190;2023-01-15T15:00:10;23.50;31.60
37868;DHT22;24011;48.880;9.190;2023-01-15T15:03:52;23.50;31.70
37868;DHT22;24011;48.880;9.190;2023-01-15T15:07:51;23.40;31.70
37868;DHT22;24011;48.880;9.190;2023-01-15T15:11:28;23.40;31.60
37868;DHT22;24011;48.880;9.190;2023-01-15T15:15:15;23.40;31.70
37868;DHT22;24011;48.880;9.190;2023-01-15T15:19:33;23.40;31.70
37868;DHT22;24011;48.880;9.190;2023-01-15T15:23:03;23.40;31.70
37868;DHT22;24011;48.880;9.190;2023-01-15T15:26:45;23.40;31.70
37868;DHT22;24011;48.880;9.190;2023-01-15T15:30:21;23.40;31.70
37868;DHT22;24011;48.880;9.190;2023-01-15T15:34:03;23.40;31.70
37868;DHT22;24011;48.880;9.190;2023-01-15T15:37:56;23.40;31.80
37868;DHT22;24011;48.880;9.190;2023-01-15T15:41:20;23.30;31.70
37868;DHT22;24011;48.880;9.190;2023-01-15T15:45:15;23.30;31.70
37868;DHT22;24011;48.880;9.190;2023-01-15T15:48:47;23.30;31.70
37868;DHT22;24011;48.880;9.190;2023-01-15T15:52:11;23.30;31.70
37868;DHT22;24011;48.880;9.190;2023-01-15T15:55:39;23.30;31.70
37868;DHT22;24011;48.880;9.190;2023-01-15T15:58:51;23.30;31.70
37868;DHT22;24011;48.880;9.190;2023-01-15T16:02:27;23.30;31.70
37868;DHT22;24011;48.880;9.190;2023-01-15T16:05:56;23.30;31.70
37868;DHT22;24011;48.880;9.190;2023-01-15T16:09:21;23.30;31.70
37868;DHT22;24011;48.880;9.190;2023-01-15T16:13:03;23.30;31.70
37868;DHT22;24011;48.880;9.190;2023-01-15T16:16:38;23.30;31.80
37868;DHT22;24011;48.880;9.190;2023-01-15T16:20:26;23.30;31.80
37868;DHT22;24011;48.880;9.190;2023-01-15T16:24:17;23.30;31.80
37868;DHT22;24011;48.880;9.190;2023-01-15T16:27:39;23.30;31.80
37868;DHT22;24011;48.880;9.190;2023-01-15T16:31:32;23.30;31.80
37868;DHT22;24011;48.880;9.190;2023-01-15T16:34:44;23.30;31.80
37868;DHT22;24011;48.880;9.190;2023-01-15T16:38:27;23.20;31.70
37868;DHT22;24011;48.880;9.190;2023-01-15T16:41:55;23.30;31.80
37868;DHT22;24011;48.880;9.190;2023-01-15T16:45:33;23.30;31.70
37868;DHT22;24011;48.880;9.190;2023-01-15T16:49:16;23.30;31.70
37868;DHT22;24011;48.880;9.190;2023-01-15T16:52:57;23.30;31.70
37868;DHT22;24011;48.880;9.190;2023-01-15T17:00:25;23.30;31.70
37868;DHT22;24011;48.880;9.190;2023-01-15T17:04:24;23.30;31.70
37868;DHT22;24011;48.880;9.190;2023-01-15T17:11:39;23.30;31.80
37868;DHT22;24011;48.880;9.190;2023-01-15T17:15:39;23.30;31.70
37868;DHT22;24011;48.880;9.190;2023-01-15T17:20:03;23.30;31.70
37868;DHT22;24011;48.880;9.190;2023-01-15T17:24:09;23.30;31.70
37868;DHT22;24011;48.880;9.190;2023-01-15T17:27:33;23.30;31.70
37868;DHT22;24011;48.880;9.190;2023-01-15T17:31:10;23.30;31.70
37868;DHT22;24011;48.880;9.190;2023-01-15T17:38:22;23.30;31.70
37868;DHT22;24011;48.880;9.190;2023-01-15T17:41:45;23.30;31.70
37868;DHT22;24011;48.880;9.190;2023-01-15T17:45:22;23.30;31.70
37868;DHT22;24011;48.880;9.190;2023-01-15T17:48:45;23.30;31.70
37868;DHT22;24011;48.880;9.190;2023-01-15T17:52:27;23.30;31.80
37868;DHT22;24011;48.880;9.190;2023-01-15T17:56:39;23.30;31.70
37868;DHT22;24011;48.880;9.190;2023-01-15T18:00:34;23.30;31.70
37868;DHT22;24011;48.880;9.190;2023-01-15T18:04:22;23.30;31.70
37868;DHT22;24011;48.880;9.190;2023-01-15T18:08:10;23.30;31.70
37868;DHT22;24011;48.880;9.190;2023-01-15T18:11:57;23.30;31.70
37868;DHT22;24011;48.880;9.190;2023-01-15T18:15:28;23.30;31.70
37868;DHT22;24011;48.880;9.190;2023-01-15T18:18:52;23.30;31.70
37868;DHT22;24011;48.880;9.190;2023-01-15T18:22:46;23.30;31.70
37868;DHT22;24011;48.880;9.190;2023-01-15T18:26:10;23.30;31.70
37868;DHT22;24011;48.880;9.190;2023-01-15T18:30:16;23.30;31.70
37868;DHT22;24011;48.880;9.190;2023-01-15T18:33:34;23.30;31.70
37868;DHT22;24011;48.880;9.190;2023-01-15T18:37:34;23.30;31.70
37868;DHT22;24011;48.880;9.190;2023-01-15T18:40:58;23.30;31.70
37868;DHT22;24011;48.880;9.190;2023-01-15T18:44:52;23.30;31.60
37868;DHT22;24011;48.880;9.190;2023-01-15T18:48:52;23.30;31.60
37868;DHT22;24011;48.880;9.190;2023-01-15T18:52:22;23.30;31.60
37868;DHT22;24011;48.880;9.190;2023-01-15T18:55:58;23.30;31.60
37868;DHT22;24011;48.880;9.190;2023-01-15T18:59:58;23.30;31.60
37868;DHT22;24011;48.880;9.190;2023-01-15T19:03:22;23.30;31.70
37868;DHT22;24011;48.880;9.190;2023-01-15T20:45:54;23.30;31.50
37868;DHT22;24011;48.880;9.190;2023-01-15T20:49:33;23.30;31.50
37868;DHT22;24011;48.880;9.190;2023-01-15T20:53:12;23.30;31.50
37868;DHT22;24011;48.880;9.190;2023-01-15T20:56:33;23.30;31.50
37868;DHT22;24011;48.880;9.190;2023-01-15T21:00:23;23.30;31.50
37868;DHT22;24011;48.880;9.190;2023-01-15T21:04:05;23.30;31.50
37868;DHT22;24011;48.880;9.190;2023-01-15T21:07:30;23.30;31.50
37868;DHT22;24011;48.880;9.190;2023-01-15T21:10:53;23.30;31.50
37868;DHT22;24011;48.880;9.190;2023-01-15T21:14:24;23.30;31.50
37868;DHT22;24011;48.880;9.190;2023-01-15T21:17:53;23.30;31.50
37868;DHT22;24011;48.880;9.190;2023-01-15T21:21:36;23.30;31.50
37868;DHT22;24011;48.880;9.190;2023-01-15T21:24:59;23.30;31.50
37868;DHT22;24011;48.880;9.190;2023-01-15T21:28:36;23.30;31.50
37868;DHT22;24011;48.880;9.190;2023-01-15T21:31:47;23.30;31.50
37868;DHT22;24011;48.880;9.190;2023-01-15T21:35:18;23.30;31.50
37868;DHT22;24011;48.880;9.190;2023-01-15T21:38:54;23.30;31.50
37868;DHT22;24011;48.880;9.190;2023-01-15T21:42:30;23.30;31.50
37868;DHT22;24011;48.880;9.190;2023-01-15T21:46:00;23.30;31.50
37868;DHT22;24011;48.880;9.190;2023-01-15T21:49:06;23.20;31.50
37868;DHT22;24011;48.880;9.190;2023-01-15T21:52:35;23.20;31.50
37868;DHT22;24011;48.880;9.190;2023-01-15T21:56:23;23.20;31.50
37868;DHT22;24011;48.880;9.190;2023-01-15T21:59:42;23.20;31.50
37868;DHT22;24011;48.880;9.190;2023-01-15T22:03:18;23.20;31.50
37868;DHT22;24011;48.880;9.190;2023-01-15T22:06:42;23.20;31.50
37868;DHT22;24011;48.880;9.190;2023-01-15T22:10:12;23.20;31.50
37868;DHT22;24011;48.880;9.190;2023-01-15T22:14:01;23.20;31.50
37868;DHT22;24011;48.880;9.190;2023-01-15T22:17:37;23.20;31.50
37868;DHT22;24011;48.880;9.190;2023-01-15T22:21:06;23.20;31.50
37868;DHT22;24011;48.880;9.190;2023-01-15T22:24:37;23.20;31.50
37868;DHT22;24011;48.880;9.190;2023-01-15T22:28:00;23.20;31.60
37868;DHT22;24011;48.880;9.190;2023-01-15T22:31:49;23.20;31.50
37868;DHT22;24011;48.880;9.190;2023-01-15T22:34:54;23.20;31.50
37868;DHT22;24011;48.880;9.190;2023-01-15T22:38:25;23.20;31.50
37868;DHT22;24011;48.880;9.190;2023-01-15T22:41:48;23.10;31.50
37868;DHT22;24011;48.880;9.190;2023-01-15T22:45:13;23.10;31.50
37868;DHT22;24011;48.880;9.190;2023-01-15T22:48:48;23.20;31.60
37868;DHT22;24011;48.880;9.190;2023-01-15T22:52:19;23.10;31.50
37868;DHT22;24011;48.880;9.190;2023-01-15T22:55:42;23.20;31.60
37868;DHT22;24011;48.880;9.190;2023-01-15T22:59:13;23.20;31.60
37868;DHT22;24011;48.880;9.190;2023-01-15T23:02:42;23.10;31.50
37868;DHT22;24011;48.880;9.190;2023-01-15T23:06:18;23.20;31.60
37868;DHT22;24011;48.880;9.190;2023-01-15T23:09:25;23.10;31.50
37868;DHT22;24011;48.880;9.190;2023-01-15T23:12:37;23.10;31.50
37868;DHT22;24011;48.880;9.190;2023-01-15T23:15:42;23.10;31.50
37868;DHT22;24011;48.880;9.190;2023-01-15T23:18:53;23.10;31.50
37868;DHT22;24011;48.880;9.190;2023-01-15T23:21:59;23.10;31.50
37868;DHT22;24011;48.880;9.190;2023-01-15T23:25:11;23.10;31.60
37868;DHT22;24011;48.880;9.190;2023-01-15T23:28:11;23.10;31.60
37868;DHT22;24011;48.880;9.190;2023-01-15T23:31:23;23.10;31.60
37868;DHT22;24011;48.880;9.190;2023-01-15T23:34:24;23.10;31.50
37868;DHT22;24011;48.880;9.190;2023-01-15T23:37:36;23.10;31.60
37868;DHT22;24011;48.880;9.190;2023-01-15T23:40:43;23.10;31.60
37868;DHT22;24011;48.880;9.190;2023-01-15T23:43:53;23.10;31.60
37868;DHT22;24011;48.880;9.190;2023-01-15T23:47:01;23.10;31.60
37868;DHT22;24011;48.880;9.190;2023-01-15T23:50:11;23.10;31.60
37868;DHT22;24011;48.880;9.190;2023-01-15T23:53:19;23.10;31.60
37868;DHT22;24011;48.880;9.190;2023-01-15T23:56:25;23.10;31.60
37868;DHT22;24011;48.880;9.190;2023-01-15T23:59:31;23.10;31.60
